Hlavní strana
METAR-TAF:

METAR-TAF

Letiště :

Ghadames, Libye

zeměpisná šířka: 30-08N, zeměpisná délka: 009-30E, výška: 346 m

METAR: chybějící

Čas: 19:50 (17:50 UTC)

Předpověď počasí

Zpráva byla vytvořena před 50 minutami, v 17:00 UTC
Předpověď platná od 07 v 18 UTC do 08 v 18 UTC
Východojihovýchodní vítr 10 kt
Viditelnost 10 km a více
Žádná oblačnost pod 1500 m, nevyskytují se cumulonimby.
Změna
od 07 v 18 UTC do 07 v 20 UTC
vítr z různých směrů 2 kt
Změna
od 08 v 10 UTC do 08 v 12 UTC
Západojihozápadní vítr 10 kt
Viditelnost: 8000 m

TAF: HLTD 071700Z 0718/0818 12010KT CAVOK BECMG 0718/0720 VRB02KT BECMG 0810/0812 24010KT 8000 NSC

Stav a předpovědi počasí z více než 4 000 letišť (zprávy METAR a TAF).

Červené a žluté tečky na mapě představují dostupné meteorologické stanice.

Když kurzor umístíte na tečku, zobrazí se název stanice.

Pak kliknutím zobrazíte stav a předpověď počasí.

Chcete-li změnit mapu, kliknutím na zelené tlačítko se znaménkem +mapu přiblížíte, kliknutím na zelené tlačítko se znaménkem – mapu oddálíte a kliknutím na zelené šipky přejdete na sousední mapy.


METAR-TAF: